Houwa Maru — JL6394 — position and weather

sailwx.info

Track history (hours):
 
Tides and Currents Weather Stations Pressure Air Temp Water Temp Dewpoint Dewpoint Depression Visibility Wind Speed Wind Dir Waves Ship Positions

Houwa Maru

Last reported at 2017-Mar-22 09:32 UTC. Time now 2017-Mar-22 22:11 UTC.
Position N 35°07' E 139°40'.

Length 76 m.

Type: Ship. MMSI: 431500378.

Date/timePositionNaut miles runAvg speedWind from/ knotsBaromVisibWave heightAir tempDewpointWater temp
2017-Mar-22 09:32N 35°07' E 139°40'1110.1
2017-Mar-22 08:26N 35°17' E 139°45'910.6
2017-Mar-22 07:33N 35°26' E 139°42'4 3.5
2017-Mar-22 06:33N 35°28' E 139°39'0 0.0
2017-Mar-22 05:33N 35°28' E 139°39'0 0.0
2017-Mar-22 04:33N 35°28' E 139°39'0 0.0
2017-Mar-22 03:33N 35°28' E 139°39'0 0.0
2017-Mar-22 02:33N 35°28' E 139°39'0 0.0
2017-Mar-22 01:33N 35°28' E 139°39'0 0.0
2017-Mar-22 00:33N 35°28' E 139°39'0 0.0
2017-Mar-21 23:33N 35°28' E 139°39'0 0.0
2017-Mar-21 22:33N 35°28' E 139°39'0 0.2
2017-Mar-21 21:29N 35°29' E 139°39'0 0.0
2017-Mar-21 20:32N 35°29' E 139°39'0 0.0
2017-Mar-21 19:32N 35°29' E 139°39'0 0.0
2017-Mar-21 18:32N 35°29' E 139°39'0 0.0
2017-Mar-21 17:32N 35°29' E 139°39'0 0.0
2017-Mar-21 16:32N 35°29' E 139°39'0 0.0
2017-Mar-21 15:32N 35°29' E 139°39'0 0.0
2017-Mar-21 14:32N 35°29' E 139°39'0 0.0
2017-Mar-21 13:32N 35°29' E 139°39'0 0.0
2017-Mar-21 12:32N 35°29' E 139°39'0 0.0
2017-Mar-21 11:32N 35°29' E 139°39'0 0.0
2017-Mar-21 10:32N 35°29' E 139°39'0 0.0
2017-Mar-21 09:32N 35°29' E 139°39'0 0.0
2017-Mar-21 08:32N 35°29' E 139°39'0 0.0
2017-Mar-21 07:32N 35°29' E 139°39'0 0.0
2017-Mar-21 06:32N 35°29' E 139°39'0 0.0
2017-Mar-21 05:32N 35°29' E 139°39'0 0.0
2017-Mar-21 04:32N 35°29' E 139°39'0 0.0
2017-Mar-21 03:32N 35°29' E 139°39'0 0.0
2017-Mar-21 02:32N 35°29' E 139°39'0 0.0
2017-Mar-21 01:32N 35°29' E 139°39'0 0.0
2017-Mar-21 00:32N 35°29' E 139°39'0 0.0
2017-Mar-20 23:32N 35°29' E 139°39'0 0.0
2017-Mar-20 22:32N 35°29' E 139°39'0 0.0
2017-Mar-20 21:32N 35°29' E 139°39'0 0.0
2017-Mar-20 20:32N 35°29' E 139°39'0 0.0
2017-Mar-20 19:32N 35°29' E 139°39'0 0.0
2017-Mar-20 18:32N 35°29' E 139°39'0 0.0
2017-Mar-20 17:32N 35°29' E 139°39'0 0.0
2017-Mar-20 16:32N 35°29' E 139°39'0 0.0
2017-Mar-20 15:32N 35°29' E 139°39'0 0.0
2017-Mar-20 14:32N 35°29' E 139°39'0 0.0
2017-Mar-20 13:32N 35°29' E 139°39'0 0.0
2017-Mar-20 12:32N 35°29' E 139°39'0 0.0
2017-Mar-20 11:32N 35°29' E 139°39'0 0.0
2017-Mar-20 10:29N 35°29' E 139°39'0 0.0
2017-Mar-20 09:32N 35°29' E 139°39'0 0.0
2017-Mar-20 08:32N 35°29' E 139°39'0 0.0
2017-Mar-20 07:32N 35°29' E 139°39'0 0.0
2017-Mar-20 06:32N 35°29' E 139°39'0 0.0
2017-Mar-20 05:32N 35°29' E 139°39'0 0.0
2017-Mar-20 04:32N 35°29' E 139°39'0 0.0
2017-Mar-20 03:32N 35°29' E 139°39'0 0.0
2017-Mar-20 02:33N 35°29' E 139°39'0 0.0
2017-Mar-20 01:33N 35°29' E 139°39'0 0.0
2017-Mar-20 00:33N 35°29' E 139°39'2 2.4
2017-Mar-19 23:33N 35°27' E 139°41'1 1.2
2017-Mar-19 22:31N 35°27' E 139°43'0 0.0
2017-Mar-19 21:31N 35°27' E 139°43'0 0.0
2017-Mar-19 20:31N 35°27' E 139°43'0 0.0
2017-Mar-19 19:31N 35°27' E 139°43'0 0.0
2017-Mar-19 18:31N 35°27' E 139°43'0 0.0
2017-Mar-19 17:31N 35°27' E 139°43'0 0.0
2017-Mar-19 16:31N 35°27' E 139°43'0 0.0
2017-Mar-19 15:31N 35°27' E 139°43'0 0.0
2017-Mar-19 14:31N 35°27' E 139°43'0 0.0
2017-Mar-19 13:31N 35°27' E 139°43'0 0.0
2017-Mar-19 12:31N 35°27' E 139°43'0 0.0
2017-Mar-19 11:31N 35°27' E 139°43'0 0.0
2017-Mar-19 10:31N 35°27' E 139°43'0 0.0
2017-Mar-19 09:31N 35°27' E 139°43'0 0.0
2017-Mar-19 08:31N 35°27' E 139°43'5 4.9
2017-Mar-19 07:33N 35°28' E 139°48'4 0.1
2017-Mar-18 02:32N 35°30' E 139°52'1110.1
2017-Mar-18 01:27N 35°21' E 139°45'9 9.2
2017-Mar-18 00:26N 35°12' E 139°47'9 9.9
2017-Mar-17 23:33N 35°05' E 139°41'  
Track history (hours):
 
Tides and Currents Weather Stations Pressure Air Temp Water Temp Dewpoint Dewpoint Depression Visibility Wind Speed Wind Dir Waves Ship Positions

Houwa Maru

Last reported at 2017-Mar-22 09:32 UTC. Time now 2017-Mar-22 22:11 UTC.
Position N 35°07' E 139°40'.

Length 76 m.

Type: Ship. MMSI: 431500378.

Date/timePositionNaut miles runAvg speedWind from/ knotsBaromVisibWave heightAir tempDewpointWater temp
2017-Mar-22 09:32N 35°07' E 139°40'1110.1
2017-Mar-22 08:26N 35°17' E 139°45'910.6
2017-Mar-22 07:33N 35°26' E 139°42'4 3.5
2017-Mar-22 06:33N 35°28' E 139°39'0 0.0
2017-Mar-22 05:33N 35°28' E 139°39'0 0.0
2017-Mar-22 04:33N 35°28' E 139°39'0 0.0
2017-Mar-22 03:33N 35°28' E 139°39'0 0.0
2017-Mar-22 02:33N 35°28' E 139°39'0 0.0
2017-Mar-22 01:33N 35°28' E 139°39'0 0.0
2017-Mar-22 00:33N 35°28' E 139°39'0 0.0
2017-Mar-21 23:33N 35°28' E 139°39'0 0.0
2017-Mar-21 22:33N 35°28' E 139°39'0 0.2
2017-Mar-21 21:29N 35°29' E 139°39'0 0.0
2017-Mar-21 20:32N 35°29' E 139°39'0 0.0
2017-Mar-21 19:32N 35°29' E 139°39'0 0.0
2017-Mar-21 18:32N 35°29' E 139°39'0 0.0
2017-Mar-21 17:32N 35°29' E 139°39'0 0.0
2017-Mar-21 16:32N 35°29' E 139°39'0 0.0
2017-Mar-21 15:32N 35°29' E 139°39'0 0.0
2017-Mar-21 14:32N 35°29' E 139°39'0 0.0
2017-Mar-21 13:32N 35°29' E 139°39'0 0.0
2017-Mar-21 12:32N 35°29' E 139°39'0 0.0
2017-Mar-21 11:32N 35°29' E 139°39'0 0.0
2017-Mar-21 10:32N 35°29' E 139°39'0 0.0
2017-Mar-21 09:32N 35°29' E 139°39'0 0.0
2017-Mar-21 08:32N 35°29' E 139°39'0 0.0
2017-Mar-21 07:32N 35°29' E 139°39'0 0.0
2017-Mar-21 06:32N 35°29' E 139°39'0 0.0
2017-Mar-21 05:32N 35°29' E 139°39'0 0.0
2017-Mar-21 04:32N 35°29' E 139°39'0 0.0
2017-Mar-21 03:32N 35°29' E 139°39'0 0.0
2017-Mar-21 02:32N 35°29' E 139°39'0 0.0
2017-Mar-21 01:32N 35°29' E 139°39'0 0.0
2017-Mar-21 00:32N 35°29' E 139°39'0 0.0
2017-Mar-20 23:32N 35°29' E 139°39'0 0.0
2017-Mar-20 22:32N 35°29' E 139°39'0 0.0
2017-Mar-20 21:32N 35°29' E 139°39'0 0.0
2017-Mar-20 20:32N 35°29' E 139°39'0 0.0
2017-Mar-20 19:32N 35°29' E 139°39'0 0.0
2017-Mar-20 18:32N 35°29' E 139°39'0 0.0
2017-Mar-20 17:32N 35°29' E 139°39'0 0.0
2017-Mar-20 16:32N 35°29' E 139°39'0 0.0
2017-Mar-20 15:32N 35°29' E 139°39'0 0.0
2017-Mar-20 14:32N 35°29' E 139°39'0 0.0
2017-Mar-20 13:32N 35°29' E 139°39'0 0.0
2017-Mar-20 12:32N 35°29' E 139°39'0 0.0
2017-Mar-20 11:32N 35°29' E 139°39'0 0.0
2017-Mar-20 10:29N 35°29' E 139°39'0 0.0
2017-Mar-20 09:32N 35°29' E 139°39'0 0.0
2017-Mar-20 08:32N 35°29' E 139°39'0 0.0
2017-Mar-20 07:32N 35°29' E 139°39'0 0.0
2017-Mar-20 06:32N 35°29' E 139°39'0 0.0
2017-Mar-20 05:32N 35°29' E 139°39'0 0.0
2017-Mar-20 04:32N 35°29' E 139°39'0 0.0
2017-Mar-20 03:32N 35°29' E 139°39'0 0.0
2017-Mar-20 02:33N 35°29' E 139°39'0 0.0
2017-Mar-20 01:33N 35°29' E 139°39'0 0.0
2017-Mar-20 00:33N 35°29' E 139°39'2 2.4
2017-Mar-19 23:33N 35°27' E 139°41'1 1.2
2017-Mar-19 22:31N 35°27' E 139°43'0 0.0
2017-Mar-19 21:31N 35°27' E 139°43'0 0.0
2017-Mar-19 20:31N 35°27' E 139°43'0 0.0
2017-Mar-19 19:31N 35°27' E 139°43'0 0.0
2017-Mar-19 18:31N 35°27' E 139°43'0 0.0
2017-Mar-19 17:31N 35°27' E 139°43'0 0.0
2017-Mar-19 16:31N 35°27' E 139°43'0 0.0
2017-Mar-19 15:31N 35°27' E 139°43'0 0.0
2017-Mar-19 14:31N 35°27' E 139°43'0 0.0
2017-Mar-19 13:31N 35°27' E 139°43'0 0.0
2017-Mar-19 12:31N 35°27' E 139°43'0 0.0
2017-Mar-19 11:31N 35°27' E 139°43'0 0.0
2017-Mar-19 10:31N 35°27' E 139°43'0 0.0
2017-Mar-19 09:31N 35°27' E 139°43'0 0.0
2017-Mar-19 08:31N 35°27' E 139°43'5 4.9
2017-Mar-19 07:33N 35°28' E 139°48'4 0.1
2017-Mar-18 02:32N 35°30' E 139°52'1110.1
2017-Mar-18 01:27N 35°21' E 139°45'9 9.2
2017-Mar-18 00:26N 35°12' E 139°47'9 9.9
2017-Mar-17 23:33N 35°05' E 139°41'  

Dump ship's entire track history